createdAt,value
2023-05-05T00:01:05.753Z,5.25
2023-05-05T00:03:36.154Z,6.05
2023-05-05T00:06:08.349Z,5.00
2023-05-05T00:08:37.817Z,5.28
2023-05-05T00:11:06.833Z,5.70
2023-05-05T00:13:36.145Z,5.10
2023-05-05T00:16:05.253Z,5.40
2023-05-05T00:18:34.460Z,5.80
2023-05-05T00:21:04.968Z,5.88
2023-05-05T00:23:34.307Z,6.00
2023-05-05T00:26:02.981Z,5.60
2023-05-05T00:28:31.815Z,6.47
2023-05-05T00:31:00.776Z,5.55
2023-05-05T00:33:29.782Z,5.72
2023-05-05T00:35:58.203Z,5.32
2023-05-05T00:38:27.623Z,6.50
2023-05-05T00:40:56.298Z,5.80
2023-05-05T00:43:25.207Z,5.72
2023-05-05T00:46:03.245Z,5.78
2023-05-05T00:48:32.306Z,6.38
2023-05-05T00:51:01.105Z,6.25
2023-05-05T00:53:29.936Z,6.60
2023-05-05T00:55:58.443Z,6.38
2023-05-05T00:58:27.706Z,6.85
2023-05-05T01:00:56.686Z,7.13
2023-05-05T01:03:25.579Z,6.70
2023-05-05T01:06:25.295Z,6.40
2023-05-05T01:09:28.961Z,6.60
2023-05-05T01:12:27.825Z,7.13
2023-05-05T01:15:15.988Z,6.32
2023-05-05T01:17:57.056Z,6.95
2023-05-05T01:20:49.924Z,6.72
2023-05-05T01:23:57.505Z,7.03
2023-05-05T01:26:51.545Z,6.47
2023-05-05T01:30:18.032Z,7.18
2023-05-05T01:32:57.124Z,6.22
2023-05-05T01:35:56.564Z,7.50
2023-05-05T01:38:37.301Z,6.05
2023-05-05T01:41:17.805Z,6.93
2023-05-05T01:43:50.183Z,6.47
2023-05-05T01:46:19.336Z,6.30
2023-05-05T01:48:48.541Z,6.25
2023-05-05T01:51:18.391Z,6.30
2023-05-05T01:53:47.547Z,7.18
2023-05-05T01:56:16.622Z,7.22
2023-05-05T01:58:45.770Z,6.47
2023-05-05T02:01:14.368Z,7.53
2023-05-05T02:03:43.384Z,6.05
2023-05-05T02:06:11.959Z,7.05
2023-05-05T02:08:40.920Z,7.78
2023-05-05T02:11:10.308Z,7.00
2023-05-05T02:13:39.973Z,6.60
2023-05-05T02:16:08.629Z,6.07
2023-05-05T02:18:39.166Z,6.40
2023-05-05T02:21:08.192Z,6.25
2023-05-05T02:23:37.037Z,6.30
2023-05-05T02:26:10.145Z,6.47
2023-05-05T02:29:08.712Z,6.38
2023-05-05T02:31:44.373Z,7.88
2023-05-05T02:34:14.137Z,6.93
2023-05-05T02:36:42.797Z,6.35
2023-05-05T02:39:26.295Z,7.05
2023-05-05T02:41:55.467Z,6.57
2023-05-05T02:44:28.285Z,6.95
2023-05-05T02:46:58.085Z,6.07
2023-05-05T02:49:27.341Z,6.05
2023-05-05T02:52:01.276Z,6.68
2023-05-05T02:54:36.215Z,7.10
2023-05-05T02:57:11.659Z,6.90
2023-05-05T03:00:17.185Z,6.72
2023-05-05T03:02:57.954Z,6.40
2023-05-05T03:05:32.139Z,6.80
2023-05-05T03:09:06.691Z,6.80
2023-05-05T03:11:47.157Z,6.78
2023-05-05T03:14:19.350Z,6.50
2023-05-05T03:16:50.273Z,6.90
2023-05-05T03:19:19.464Z,6.55
2023-05-05T03:21:52.664Z,6.32
2023-05-05T03:24:21.706Z,7.00
2023-05-05T03:26:59.322Z,6.13
2023-05-05T03:29:34.321Z,6.80
2023-05-05T03:32:04.999Z,6.88
2023-05-05T03:34:37.506Z,7.40
2023-05-05T03:37:07.726Z,6.50
2023-05-05T03:39:36.332Z,6.57
2023-05-05T03:42:06.209Z,6.78
2023-05-05T03:44:36.808Z,7.32
2023-05-05T03:47:06.080Z,7.28
2023-05-05T03:49:38.384Z,7.88
2023-05-05T03:52:07.562Z,7.80
2023-05-05T03:54:36.959Z,7.32
2023-05-05T03:57:05.827Z,7.22
2023-05-05T03:59:34.402Z,8.35
2023-05-05T04:02:03.493Z,7.20
2023-05-05T04:04:32.521Z,7.63
2023-05-05T04:07:01.606Z,7.30
2023-05-05T04:09:30.175Z,8.23
2023-05-05T04:11:59.445Z,7.18
2023-05-05T04:14:29.258Z,7.50
2023-05-05T04:16:58.436Z,7.70
2023-05-05T04:19:27.026Z,7.65
2023-05-05T04:21:56.005Z,7.40
2023-05-05T04:24:25.288Z,8.88
2023-05-05T04:26:56.976Z,8.30
2023-05-05T04:29:26.246Z,8.13
2023-05-05T04:31:56.344Z,7.53
2023-05-05T04:34:25.194Z,7.65
2023-05-05T04:36:54.494Z,7.80
2023-05-05T04:39:23.177Z,7.70
2023-05-05T04:41:52.476Z,8.65
2023-05-05T04:44:21.211Z,8.32
2023-05-05T04:46:50.680Z,7.05
2023-05-05T04:49:19.348Z,7.93
2023-05-05T04:51:48.327Z,7.97
2023-05-05T04:54:16.868Z,7.93
2023-05-05T04:56:45.816Z,7.68
2023-05-05T04:59:15.589Z,8.73
2023-05-05T05:01:44.580Z,7.60
2023-05-05T05:04:14.195Z,6.80
2023-05-05T05:06:43.267Z,8.25
2023-05-05T05:09:12.335Z,7.78
2023-05-05T05:11:41.245Z,7.65
2023-05-05T05:14:09.809Z,7.32
2023-05-05T05:16:39.467Z,8.07
2023-05-05T05:19:08.171Z,7.60
2023-05-05T05:21:37.143Z,7.53
2023-05-05T05:24:05.997Z,8.90
2023-05-05T05:26:34.943Z,10.98
2023-05-05T05:29:04.886Z,11.65
2023-05-05T05:31:34.687Z,12.23
2023-05-05T05:34:03.994Z,11.65
2023-05-05T05:36:33.424Z,12.10
2023-05-05T05:39:02.111Z,12.25
2023-05-05T05:41:31.224Z,12.45
2023-05-05T05:44:00.176Z,11.80
2023-05-05T05:46:30.048Z,12.07
2023-05-05T05:48:59.942Z,13.00
2023-05-05T05:51:29.125Z,13.07
2023-05-05T05:53:59.034Z,12.57
2023-05-05T05:56:28.431Z,12.32
2023-05-05T05:58:57.421Z,11.35
2023-05-05T06:01:26.473Z,11.25
2023-05-05T06:03:55.521Z,11.10
2023-05-05T06:06:24.601Z,10.80
2023-05-05T06:08:53.229Z,10.02
2023-05-05T06:11:22.526Z,11.63
2023-05-05T06:13:51.268Z,10.85
2023-05-05T06:16:20.591Z,11.75
2023-05-05T06:18:50.784Z,12.02
2023-05-05T06:21:20.921Z,12.10
2023-05-05T06:23:49.763Z,12.02
2023-05-05T06:26:21.751Z,11.75
2023-05-05T06:28:50.625Z,11.00
2023-05-05T06:31:19.525Z,12.48
2023-05-05T06:33:48.101Z,11.20
2023-05-05T06:36:16.956Z,12.70
2023-05-05T06:38:45.587Z,11.73
2023-05-05T06:41:14.527Z,11.70
2023-05-05T06:43:44.484Z,11.73
2023-05-05T06:46:16.024Z,12.23
2023-05-05T06:48:44.677Z,11.98
2023-05-05T06:51:13.566Z,13.55
2023-05-05T06:53:42.374Z,13.15
2023-05-05T06:56:11.763Z,14.25
2023-05-05T06:58:40.385Z,13.60
2023-05-05T07:01:09.815Z,14.30
2023-05-05T07:03:38.485Z,14.85
2023-05-05T07:06:07.492Z,14.93
2023-05-05T07:08:36.123Z,14.77
2023-05-05T07:11:05.005Z,14.48
2023-05-05T07:13:33.601Z,16.02
2023-05-05T07:16:02.511Z,13.43
2023-05-05T07:18:31.004Z,12.45
2023-05-05T07:20:59.917Z,13.35
2023-05-05T07:23:28.506Z,13.27
2023-05-05T07:25:57.409Z,14.98
2023-05-05T07:28:26.686Z,14.30
2023-05-05T07:30:55.582Z,14.07
2023-05-05T07:33:24.088Z,13.55
2023-05-05T07:35:52.967Z,13.82
2023-05-05T07:38:21.550Z,12.40
2023-05-05T07:40:50.476Z,12.68
2023-05-05T07:43:19.118Z,13.52
2023-05-05T07:45:48.141Z,13.13
2023-05-05T07:48:16.901Z,12.88
2023-05-05T07:50:45.831Z,12.90
2023-05-05T07:53:15.408Z,13.75
2023-05-05T07:55:44.413Z,13.65
2023-05-05T07:58:13.010Z,13.60
2023-05-05T08:00:44.181Z,13.15
2023-05-05T08:03:13.269Z,11.85
2023-05-05T08:06:12.471Z,13.88
2023-05-05T08:08:40.892Z,13.00
2023-05-05T08:11:09.773Z,12.85
2023-05-05T08:13:39.376Z,12.52
2023-05-05T08:16:08.484Z,11.73
2023-05-05T08:18:38.569Z,12.82
2023-05-05T08:21:09.438Z,13.63
2023-05-05T08:23:38.873Z,13.18
2023-05-05T08:26:09.385Z,12.65
2023-05-05T08:28:37.889Z,11.90
2023-05-05T08:31:07.115Z,11.30
2023-05-05T08:33:35.712Z,9.80
2023-05-05T08:36:05.810Z,12.77
2023-05-05T08:38:34.349Z,12.98
2023-05-05T08:41:03.933Z,13.18
2023-05-05T08:43:32.994Z,12.60
2023-05-05T08:46:01.793Z,11.55
2023-05-05T08:48:30.219Z,13.50
2023-05-05T08:51:01.390Z,11.90
2023-05-05T08:53:47.401Z,11.80
2023-05-05T08:56:16.411Z,9.82
2023-05-05T08:58:44.976Z,9.48
2023-05-05T09:01:14.444Z,9.80
2023-05-05T09:03:43.645Z,10.15
2023-05-05T09:06:12.610Z,9.50
2023-05-05T09:08:41.780Z,8.25
2023-05-05T09:11:10.736Z,7.85
2023-05-05T09:13:47.892Z,7.20
2023-05-05T09:16:16.944Z,6.13
2023-05-05T09:18:45.773Z,7.13
2023-05-05T09:21:25.017Z,5.47
2023-05-05T09:24:12.738Z,4.57
2023-05-05T09:26:46.927Z,5.50
2023-05-05T09:29:22.170Z,6.75
2023-05-05T09:32:11.073Z,6.35
2023-05-05T09:34:39.702Z,6.07
2023-05-05T09:37:08.582Z,5.80
2023-05-05T09:39:37.211Z,5.10
2023-05-05T09:42:06.336Z,5.07
2023-05-05T09:44:36.562Z,4.93
2023-05-05T09:47:09.643Z,6.25
2023-05-05T09:49:58.154Z,6.63
2023-05-05T09:52:27.263Z,6.18
2023-05-05T09:54:57.339Z,7.53
2023-05-05T09:57:34.070Z,6.25
2023-05-05T10:00:04.530Z,7.32
2023-05-05T10:02:38.759Z,6.10
2023-05-05T10:05:14.956Z,6.32
2023-05-05T10:07:45.991Z,7.35
2023-05-05T10:10:18.721Z,7.07
2023-05-05T10:12:48.075Z,7.72
2023-05-05T10:15:17.048Z,7.70
2023-05-05T10:20:21.027Z,6.80
2023-05-05T10:22:53.665Z,7.80
2023-05-05T10:25:29.774Z,7.50
2023-05-05T10:28:01.845Z,6.22
2023-05-05T10:30:32.387Z,6.82
2023-05-05T10:33:27.328Z,7.78
2023-05-05T10:35:56.824Z,7.15
2023-05-05T10:38:26.798Z,6.20
2023-05-05T10:40:55.870Z,6.47
2023-05-05T10:43:25.035Z,7.30
2023-05-05T10:45:53.972Z,7.00
2023-05-05T10:48:38.631Z,6.70
2023-05-05T10:51:35.940Z,6.43
2023-05-05T10:54:17.461Z,6.90
2023-05-05T10:56:46.268Z,5.97
2023-05-05T10:59:37.383Z,6.18
2023-05-05T11:02:28.536Z,6.53
2023-05-05T11:05:21.761Z,6.35
2023-05-05T11:07:51.968Z,5.47
2023-05-05T11:10:21.380Z,7.40
2023-05-05T11:13:13.357Z,7.28
2023-05-05T11:15:42.723Z,6.28
2023-05-05T11:18:43.603Z,6.05
2023-05-05T11:21:19.012Z,5.82
2023-05-05T11:23:51.675Z,5.85
2023-05-05T11:26:51.495Z,6.53
2023-05-05T11:29:20.296Z,6.28
2023-05-05T11:32:18.417Z,6.18
2023-05-05T11:34:50.941Z,6.22
2023-05-05T11:37:22.784Z,6.03
2023-05-05T11:40:04.589Z,6.50
2023-05-05T11:42:33.721Z,6.88
2023-05-05T11:45:02.461Z,6.78
2023-05-05T11:47:31.860Z,5.72
2023-05-05T11:50:17.116Z,6.28
2023-05-05T11:52:46.307Z,5.03
2023-05-05T11:55:20.119Z,4.50
2023-05-05T11:57:49.449Z,4.07
2023-05-05T12:00:18.556Z,3.80
2023-05-05T12:02:47.948Z,3.22
2023-05-05T12:05:20.442Z,3.72
2023-05-05T12:07:49.561Z,4.95
2023-05-05T12:10:23.926Z,3.67
2023-05-05T12:12:55.392Z,3.08
2023-05-05T12:15:33.888Z,3.00
2023-05-05T12:18:03.465Z,3.15
2023-05-05T12:20:33.361Z,2.92
2023-05-05T12:23:03.386Z,2.83
2023-05-05T12:25:39.477Z,3.05
2023-05-05T12:28:09.023Z,2.83
2023-05-05T12:30:37.887Z,3.20
2023-05-05T12:33:07.929Z,3.75
2023-05-05T12:35:36.702Z,3.63
2023-05-05T12:38:06.175Z,4.88
2023-05-05T12:40:54.168Z,3.75
2023-05-05T12:43:27.312Z,3.75
2023-05-05T12:46:10.752Z,5.05
2023-05-05T12:48:41.013Z,5.28
2023-05-05T12:51:12.749Z,4.22
2023-05-05T12:53:41.831Z,4.38
2023-05-05T12:56:39.316Z,4.40
2023-05-05T12:59:09.571Z,7.30
2023-05-05T13:01:54.743Z,5.80
2023-05-05T13:04:24.677Z,5.28
2023-05-05T13:07:09.280Z,7.07
2023-05-05T13:09:38.276Z,6.05
2023-05-05T13:12:09.045Z,6.47
2023-05-05T13:14:38.683Z,6.07
2023-05-05T13:17:07.455Z,6.60
2023-05-05T13:19:42.171Z,5.93
2023-05-05T13:22:10.874Z,5.75
2023-05-05T13:24:50.631Z,6.30
2023-05-05T13:27:21.235Z,5.57
2023-05-05T13:29:50.332Z,5.10
2023-05-05T13:32:18.977Z,5.35
2023-05-05T13:34:47.884Z,6.70
2023-05-05T13:37:16.494Z,6.35
2023-05-05T13:39:45.507Z,6.90
2023-05-05T13:42:14.133Z,7.82
2023-05-05T13:44:43.073Z,7.68
2023-05-05T13:47:11.726Z,6.45
2023-05-05T13:49:40.766Z,5.68
2023-05-05T13:52:09.425Z,6.13
2023-05-05T13:54:38.400Z,5.38
2023-05-05T13:57:08.274Z,5.05
2023-05-05T13:59:37.313Z,4.85
2023-05-05T14:02:06.407Z,4.88
2023-05-05T14:04:35.488Z,4.53
2023-05-05T14:07:05.024Z,4.72
2023-05-05T14:09:34.074Z,4.15
2023-05-05T14:12:03.737Z,4.25
2023-05-05T14:14:32.703Z,3.88
2023-05-05T14:17:01.439Z,4.90
2023-05-05T14:19:31.212Z,3.65
2023-05-05T14:21:59.906Z,3.80
2023-05-05T14:24:28.906Z,4.35
2023-05-05T14:26:57.553Z,4.03
2023-05-05T14:29:26.887Z,3.38
2023-05-05T14:31:55.658Z,3.78
2023-05-05T14:34:24.663Z,3.47
2023-05-05T14:36:53.371Z,3.72
2023-05-05T14:39:22.398Z,3.65
2023-05-05T14:41:51.221Z,3.90
2023-05-05T14:44:20.313Z,3.45
2023-05-05T14:46:50.488Z,3.40
2023-05-05T14:49:20.153Z,3.60
2023-05-05T14:51:48.904Z,3.60
2023-05-05T14:54:27.366Z,3.47
2023-05-05T14:56:57.127Z,2.90
2023-05-05T14:59:27.759Z,3.08
2023-05-05T15:01:57.271Z,2.97
2023-05-05T15:04:26.563Z,2.53
2023-05-05T15:06:55.244Z,2.80
2023-05-05T15:09:24.278Z,3.03
2023-05-05T15:11:53.179Z,2.92
2023-05-05T15:14:22.346Z,2.70
2023-05-05T15:16:51.892Z,3.08
2023-05-05T15:19:21.026Z,3.28
2023-05-05T15:21:53.375Z,3.22
2023-05-05T15:24:22.412Z,3.97
2023-05-05T15:26:51.360Z,2.85
2023-05-05T15:29:20.362Z,3.13
2023-05-05T15:31:49.064Z,2.90
2023-05-05T15:34:18.279Z,2.97
2023-05-05T15:36:46.851Z,2.60
2023-05-05T15:39:15.918Z,3.15
2023-05-05T15:41:44.630Z,2.58
2023-05-05T15:44:13.726Z,2.58
2023-05-05T15:46:42.467Z,2.70
2023-05-05T15:49:11.490Z,2.80
2023-05-05T15:51:40.162Z,2.28
2023-05-05T15:54:09.184Z,2.65
2023-05-05T15:56:37.951Z,2.97
2023-05-05T15:59:07.701Z,3.00
2023-05-05T16:01:36.610Z,3.22
2023-05-05T16:04:05.789Z,3.13
2023-05-05T16:06:34.582Z,3.05
2023-05-05T16:09:04.086Z,3.15
2023-05-05T16:11:32.772Z,3.17
2023-05-05T16:14:01.828Z,3.50
2023-05-05T16:16:30.935Z,4.22
2023-05-05T16:18:59.862Z,3.80
2023-05-05T16:21:28.655Z,3.70
2023-05-05T16:23:57.878Z,3.83
2023-05-05T16:26:26.539Z,8.45
2023-05-05T16:28:55.625Z,6.78
2023-05-05T16:31:24.333Z,7.32
2023-05-05T16:33:53.356Z,5.45
2023-05-05T16:36:22.139Z,5.32
2023-05-05T16:38:51.152Z,5.75
2023-05-05T16:41:19.966Z,5.70
2023-05-05T16:43:49.245Z,5.35
2023-05-05T16:46:18.328Z,6.47
2023-05-05T16:48:47.549Z,5.97
2023-05-05T16:51:16.188Z,4.93
2023-05-05T16:53:46.613Z,5.20
2023-05-05T16:56:16.546Z,4.47
2023-05-05T16:58:45.589Z,5.60
2023-05-05T17:01:14.302Z,4.85
2023-05-05T17:03:43.383Z,4.32
2023-05-05T17:06:13.253Z,4.40
2023-05-05T17:08:42.403Z,4.03
2023-05-05T17:11:11.900Z,3.97
2023-05-05T17:13:41.114Z,3.58
2023-05-05T17:16:09.806Z,4.28
2023-05-05T17:18:38.810Z,5.28
2023-05-05T17:21:07.633Z,5.60
2023-05-05T17:23:36.801Z,7.28
2023-05-05T17:26:05.505Z,8.00
2023-05-05T17:28:34.536Z,6.65
2023-05-05T17:31:03.207Z,5.57
2023-05-05T17:33:32.402Z,6.47
2023-05-05T17:36:01.032Z,8.05
2023-05-05T17:38:30.082Z,7.28
2023-05-05T17:40:58.705Z,5.38
2023-05-05T17:43:27.766Z,6.70
2023-05-05T17:45:56.533Z,4.95
2023-05-05T17:48:26.589Z,3.75
2023-05-05T17:50:55.349Z,3.78
2023-05-05T17:53:24.446Z,3.80
2023-05-05T17:55:53.143Z,3.95
2023-05-05T17:58:22.517Z,3.85
2023-05-05T18:00:51.497Z,3.85
2023-05-05T18:03:20.780Z,3.22
2023-05-05T18:05:49.559Z,4.45
2023-05-05T18:08:18.825Z,4.00
2023-05-05T18:10:47.487Z,4.13
2023-05-05T18:13:16.504Z,3.85
2023-05-05T18:15:46.611Z,3.75
2023-05-05T18:18:15.964Z,4.15
2023-05-05T18:20:44.608Z,3.53
2023-05-05T18:23:13.999Z,3.90
2023-05-05T18:25:42.788Z,3.75
2023-05-05T18:28:12.494Z,4.15
2023-05-05T18:30:41.327Z,3.90
2023-05-05T18:33:10.251Z,4.38
2023-05-05T18:35:39.013Z,4.07
2023-05-05T18:38:08.059Z,4.32
2023-05-05T18:40:36.729Z,3.80
2023-05-05T18:43:05.771Z,3.72
2023-05-05T18:45:34.544Z,3.85
2023-05-05T18:48:03.742Z,4.63
2023-05-05T18:50:33.727Z,4.53
2023-05-05T18:53:02.920Z,4.03
2023-05-05T18:55:31.636Z,4.30
2023-05-05T18:58:00.713Z,4.57
2023-05-05T19:00:29.834Z,4.45
2023-05-05T19:02:58.719Z,6.07
2023-05-05T19:05:28.216Z,5.90
2023-05-05T19:07:57.011Z,5.70
2023-05-05T19:10:26.354Z,5.40
2023-05-05T19:12:55.831Z,4.85
2023-05-05T19:15:25.368Z,5.80
2023-05-05T19:17:55.242Z,5.32
2023-05-05T19:20:25.823Z,5.07
2023-05-05T19:22:56.244Z,6.10
2023-05-05T19:25:25.319Z,6.03
2023-05-05T19:27:54.858Z,6.22
2023-05-05T19:30:25.266Z,5.40
2023-05-05T19:32:55.183Z,5.22
2023-05-05T19:35:25.688Z,5.00
2023-05-05T19:37:56.830Z,4.30
2023-05-05T19:40:27.128Z,5.60
2023-05-05T19:42:57.258Z,5.40
2023-05-05T19:45:26.528Z,6.95
2023-05-05T19:47:57.716Z,5.13
2023-05-05T19:50:28.188Z,6.70
2023-05-05T19:52:58.355Z,6.47
2023-05-05T19:55:27.680Z,6.30
2023-05-05T19:57:56.366Z,8.25
2023-05-05T20:00:25.367Z,6.72
2023-05-05T20:02:54.093Z,6.97
2023-05-05T20:05:23.305Z,6.85
2023-05-05T20:07:52.153Z,6.65
2023-05-05T20:10:21.266Z,6.47
2023-05-05T20:12:50.504Z,7.00
2023-05-05T20:15:20.575Z,6.43
2023-05-05T20:17:49.326Z,7.53
2023-05-05T20:20:20.715Z,8.02
2023-05-05T20:22:49.735Z,6.03
2023-05-05T20:25:19.065Z,6.53
2023-05-05T20:27:47.817Z,5.75
2023-05-05T20:30:16.919Z,5.68
2023-05-05T20:32:45.790Z,5.10
2023-05-05T20:35:15.094Z,5.10
2023-05-05T20:37:45.302Z,5.38
2023-05-05T20:40:14.639Z,5.03
2023-05-05T20:42:43.437Z,5.28
2023-05-05T20:45:12.755Z,5.97
2023-05-05T20:47:41.522Z,5.72
2023-05-05T20:50:11.825Z,5.22
2023-05-05T20:52:40.799Z,4.13
2023-05-05T20:55:10.033Z,5.13
2023-05-05T20:57:38.868Z,4.68
2023-05-05T21:00:09.288Z,4.47
2023-05-05T21:02:38.447Z,4.45
2023-05-05T21:05:08.439Z,4.03
2023-05-05T21:07:37.285Z,4.45
2023-05-05T21:10:07.180Z,4.13
2023-05-05T21:12:36.210Z,4.40
2023-05-05T21:15:05.763Z,4.18
2023-05-05T21:17:34.828Z,3.90
2023-05-05T21:20:04.166Z,4.18
2023-05-05T21:22:32.859Z,4.20
2023-05-05T21:25:19.194Z,3.72
2023-05-05T21:27:48.687Z,3.90
2023-05-05T21:30:18.000Z,3.72
2023-05-05T21:32:46.975Z,4.10
2023-05-05T21:35:16.172Z,4.30
2023-05-05T21:37:44.912Z,3.60
2023-05-05T21:40:16.523Z,4.95
2023-05-05T21:42:45.198Z,4.30
2023-05-05T21:45:14.341Z,3.72
2023-05-05T21:47:43.205Z,4.93
2023-05-05T21:50:13.109Z,4.38
2023-05-05T21:52:41.999Z,3.88
2023-05-05T21:55:11.200Z,4.05
2023-05-05T21:57:39.890Z,4.28
2023-05-05T22:00:10.086Z,4.55
2023-05-05T22:02:41.715Z,4.43
2023-05-05T22:05:10.990Z,4.15
2023-05-05T22:07:40.693Z,5.07
2023-05-05T22:10:10.356Z,4.57
2023-05-05T22:12:39.237Z,4.22
2023-05-05T22:15:09.126Z,4.22
2023-05-05T22:17:38.131Z,4.40
2023-05-05T22:20:09.387Z,4.30
2023-05-05T22:22:38.470Z,3.95
2023-05-05T22:25:08.216Z,5.13
2023-05-05T22:27:37.201Z,5.03
2023-05-05T22:30:06.833Z,4.65
2023-05-05T22:32:35.722Z,4.60
2023-05-05T22:35:05.504Z,5.85
2023-05-05T22:37:34.559Z,4.72
2023-05-05T22:40:03.856Z,4.82
2023-05-05T22:42:32.671Z,4.78
2023-05-05T22:45:01.768Z,5.00
2023-05-05T22:47:31.250Z,4.15
2023-05-05T22:50:00.460Z,5.60
2023-05-05T22:52:29.275Z,5.50
2023-05-05T22:54:58.665Z,4.63
2023-05-05T22:57:27.429Z,4.60
2023-05-05T22:59:56.493Z,4.15
2023-05-05T23:02:26.839Z,4.85
2023-05-05T23:04:56.090Z,4.68
2023-05-05T23:07:24.845Z,5.15
2023-05-05T23:09:54.015Z,4.93
2023-05-05T23:12:22.619Z,4.80
2023-05-05T23:14:51.737Z,5.57
2023-05-05T23:17:20.809Z,5.07
2023-05-05T23:19:50.186Z,4.28
2023-05-05T23:22:18.969Z,4.22
2023-05-05T23:24:48.156Z,6.25
2023-05-05T23:27:16.878Z,4.75
2023-05-05T23:29:45.842Z,4.85
2023-05-05T23:32:14.645Z,4.72
2023-05-05T23:34:43.604Z,4.88
2023-05-05T23:37:14.667Z,5.47
2023-05-05T23:39:43.768Z,5.53
2023-05-05T23:42:12.502Z,6.07
2023-05-05T23:44:41.588Z,4.70
2023-05-05T23:47:10.425Z,5.22
2023-05-05T23:49:39.764Z,4.88
2023-05-05T23:52:08.463Z,5.25
2023-05-05T23:54:37.456Z,5.53
2023-05-05T23:57:06.236Z,5.03
2023-05-05T23:59:35.377Z,5.53
